NWS Home NWS Lubbock West Texas Mesonet Day over Day changes as of 0647 PM, Sun Mar 29, 2020

Latest   N   C   S   Daily Sum   3hrΔ   24hrΔ   Soil Data 
Site Map   24hr Precip   72hr Precip   Google Plot


Station Time of Last Temp Today Temp Yesterday Delta-T Dewpoint Today Dewpoint Yesterday Delta-Td Delta-Pressure (mB)
Reese Center  06:40 PM 65.2 64.3 1 25 13 12 3.4
Abernathy  06:40 PM 64 63.8 0.2 31.1 15 16.1 4.2
Plainview  06:40 PM 63.7 63 0.8 28.7 10.6 18.1 4.2
Tahoka  06:40 PM 65.3 65.2 0.1 27.6 16.1 11.5 3
Slaton  06:40 PM 65.1 65.3 -0.2 27.7 10.7 17.1 3.6
Levelland  06:40 PM 65.9 63.4 2.5 24.8 12.4 12.5 2.7
Roaring Springs  06:40 PM 65.3 67 -1.7 38.4 16 22.4 5.4
Floydada  06:40 PM 64 65.4 -1.4 29 7.5 21.6 4.7
Ralls  06:40 PM 64.8 64.1 0.7 27.7 14.1 13.5 4.2
Brownfield  06:40 PM 66.1 63.7 2.4 23.8 15.4 8.3 2.2
Muleshoe  06:40 PM 64.6 62 2.6 18.4 10.3 8 2.6
Morton  06:40 PM 65.1 63.1 2 18.1 6.9 11.2 2.5
Comanche Springs  06:40 PM 67 71.1 -4.2 41.5 19.4 22.1 6.7
O'Donnell  06:40 PM 65.7 64.7 1 27.8 17.4 10.4 3
Seagraves  06:40 PM 66 63.5 2.5 24.3 15.8 8.5 1.6
Amherst  06:40 PM 64.4 62.9 1.5 21 13.1 7.9 3.2
Plains  06:40 PM 65 62.2 2.8 24.1 16 8.1 1.5
Lamesa  06:40 PM 65.5 64.4 1 22.9 11.3 11.6 2.6
Hart  06:40 PM 63.7 60.1 3.7 22.7 18.9 3.9 3.7
Friona  06:40 PM 63.7 61.6 2.2 22 10.7 11.3 2.8
Dimmitt  06:40 PM 63 61.3 1.7 26.6 16.1 10.5 3.4
Tulia  06:30 PM 63.5 63.5 0.1 25.8 15.2 10.6 4.5
Silverton  06:40 PM 64.7 64 0.7 23.2 14.8 8.5 4.9
Post  06:40 PM 68.2 69 -0.7 25.1 7.5 17.5 3.9
Seminole  06:40 PM 66 63.1 3 21.5 10.5 11 1.2
Gail  06:40 PM 66.1 67.2 -1.1 24.2 10.2 14 3.5
White River Lake  06:40 PM 66 67.3 -1.3 33.7 15.2 18.5 4.4
Graham  06:40 PM 66.1 65.8 0.3 24.5 12.8 11.7 3.5
Sundown  06:40 PM 66.6 63.3 3.3 19.1 7.3 11.7 2.2
Anton  06:40 PM 64.9 63.8 1.1 25.5 13.3 12.1 3.4
Fluvanna  06:40 PM 65.6 66.8 -1.2 26.3 13.8 12.5 3.9
Spur  06:40 PM 67.2 69.5 -2.3 34.6 16.8 17.8 4.7
Northwest Lubbock  06:40 PM 65.6 65.1 0.5 24.8 13.3 11.5 3.6
Guthrie  06:40 PM 68 70.4 -2.4 33.9 16.3 17.7 5.4
Clarendon  06:40 PM 65.1 65.6 -0.5 30.1 12.1 18 5.7
Paducah  06:40 PM 66.7 69.4 -2.7 39.2 13.7 25.5 5.9
Snyder  06:40 PM 66.3 67.9 -1.6 27.2 16.3 11 4.2
Memphis  06:40 PM 68.4 69.5 -1.1 30.3 14.6 15.7 6.2
Jayton  06:40 PM 67.2 69.9 -2.6 36.5 17 19.5 5.2
Pampa  06:40 PM 63.1 58.5 4.6 29.1 19 10.1 4.7
Aspermont  06:40 PM 67.2 70.7 -3.5 41.4 22.2 19.1 5.5
Hereford  06:40 PM 63.8 59 4.7 22.2 15.4 6.7 3.1
Goodlett  06:40 PM 67 70.8 -3.9 40.1 18.4 21.7 6.9
McLean  06:40 PM 64.4 63.8 0.6 29 15.6 13.4 5.7
Denver City  06:40 PM 65.2 61 4.2 20.7 11.9 8.8 1
Lake Alan Henry  06:40 PM 66.7 68.4 -1.7 38.5 18.8 19.7 4.3
Wolfforth  06:40 PM 65.8 65.4 0.4 25.8 12.4 13.4 3.1
Andrews  06:40 PM 67.9 65.5 2.3 26.7 13.2 13.5 1.3
Turkey  06:40 PM 66.5 68 -1.5 32.6 13.7 18.9 5.4
Childress  06:40 PM 65.7 70 -4.4 37.7 13.2 24.5 6.5
Tatum  06:40 PM 63.8 60.7 3 21 10.8 10.2 1.1
Northfield  06:40 PM 67 70.6 -3.6 33.7 8.1 25.6 5.9
Dora  06:40 PM 62.3 60.7 1.6 17.5 7.2 10.3 1.9
Northwest San Angelo  06:40 PM 69.5 73 -3.5 26 10.5 15.5 3.9
Saint Lawrence  06:40 PM 69.4 68.5 0.9 28.8 13.5 15.4 2.1
Haskell  06:40 PM 66.6 71.2 -4.6 43.5 23.2 20.4 5.9
Wall  06:40 PM 70.1 73.8 -3.7 30.1 19.2 10.9 3.8
Seymour  06:40 PM 65.2 69.2 -4 48.6 33.3 15.3 6.7
Knox City  06:40 PM 65.6 69.4 -3.8 45.3 29.3 16 6.1
Guadalupe Mtns Park  06:40 PM 60 53.5 6.5 17.2 10 7.1 1.1
Caprock Canyons   06:40 PM 65.4 66.7 -1.3 31.5 12.3 19.1 5.1
Odell  06:40 PM 66.1 70.3 -4.2 43.4 26.6 16.8 7.2
Coyanosa  06:40 PM 76.7 71.3 5.5 35 6.5 28.5 -1.1
Big Lake  06:40 PM 70.6 69.8 0.7 30.8 11.3 19.5 1.8
Junction  06:40 PM 73.9 75.2 -1.3 38.3 21.8 16.5 3.2
Hobbs  06:40 PM 65.4 61.3 4.1 18.9 8.5 10.4 0.4
Canadian  06:40 PM 68.1 60.1 8 28.1 26 2.1 5.2
Palo Duro Canyon State Park Rim  06:40 PM 65.9 64.1 1.9 22.1 9.3 12.8 4.2
Bootleg  06:40 PM 62.6 59.6 3 18.4 11.4 7 2.5
Sterling City  06:40 PM 67.6 68.9 -1.3 33.6 17 16.6 3.1
Mertzon  06:40 PM 69.1 72 -2.9 29.8 16.4 13.4 3.2
Persimmon Gap  06:40 PM 83.1 76.6 6.6 44.6 2.6 42 -1.6
Weinert  06:40 PM 66.7 70 -3.3 43.3 26.9 16.3 6.1
Claude 12 Southwest  06:40 PM 64.6 63.5 1.1 23.3 6.4 16.8 4.6
Amarillo 7 South Southeast  06:40 PM 64.8 62.8 2 25.5 9.1 16.4 4
Umbarger  06:40 PM 64.4 61.6 2.8 23.3 6.9 16.4 3.5
Lomax  06:40 PM 69.3 68.5 0.7 27.1 16.4 10.7 2.7
Amarillo 9 North Northeast  06:40 PM 66.3 63.5 2.8 24 7.2 16.8 3.8
Aiken  06:40 PM 63.6 63.9 -0.3 30.3 12.3 18 4.4
Sweetwater  06:40 PM 66 66.6 -0.6 27.5 20 7.4 4.1
Dozier  06:40 PM 66.5 67.4 -0.8 33.8 19.4 14.4 6.4
Amarillo 15 North Northwest  06:40 PM 66.7 63.8 2.9 24.2 8.3 15.9 3.6
Menard  06:40 PM 66.9 70.7 -3.8 39.2 25.6 13.6 3.6
Tarzan  06:40 PM 67.9 66.3 1.6 25.8 15.6 10.1 2.2
Goodnight  06:40 PM 63.7 64.8 -1 32.3 15 17.3 5.2
Boys Ranch   06:40 PM 67.5 63.4 4 24.1 7.2 16.9 3.1
Fort McKavett  06:40 PM 68.3 72 -3.7 39.7 20 19.7 3.2
Fort Chadbourne  06:40 PM 66.8 69.8 -3 35.2 23 12.2 4.6
Palo Duro Canyon State Park Floor  06:40 PM 69 67.4 1.6 23.3 8.2 15.1 4.3
Fort Lancaster  03:15 AM 46.3 74.2 -27.9 16.1 60.8 -44.8 9.9
Dell City 1N  06:40 PM 70.4 63.3 7.1 23.9 14.3 9.7 -2.1
Clyde  06:40 PM 65.8 69 -3.2 40.4 22 18.4 5
Snyder SSW  06:40 PM 66.5 68 -1.5 30.1 15.7 14.4 4.3
Panhandle  06:40 PM 63 61 2 30.7 16.4 14.4 4.3
Vigo Park  06:40 PM 64.1 63.1 1 24.4 14.1 10.3 4.6
Welch  06:40 PM 66.4 65.4 1 25.9 10.9 15 2.2
Throckmorton  06:40 PM 66.2 70.8 -4.5 46 33.3 12.7 6.4
Sierra Blanca  06:40 PM 71.9 60.1 11.7 16.3 11.6 4.7 -2.5
Fort Lewis CO  05:40 PM 45.1 38.6 6.5 19.7 15.3 4.4 -0.2
New Home  06:40 PM 66 64.7 1.3 27.5 13.3 14.2 3
McCamey  06:40 PM 72.9 71.7 1.2 38.8 10.5 28.2 0.9
Stamford  06:40 PM 66.3 69 -2.7 45.3 32.7 12.5 5.4
Crowell  06:40 PM 67.4 71.7 -4.3 43.3 21.9 21.4 7
Stinnett  06:40 PM 66.7 57.2 9.5 22.9 19 3.8 3.5
Colorado City  06:40 PM 68.3 69.8 -1.5 27.3 15.1 12.2 3.9
Happy  06:40 PM 63.9 62.8 1.1 25.5 11.6 13.9 4.1
Endee  06:40 PM 66.3 61.5 4.9 22.8 11.7 11.2 2.2
JA Ranch  06:40 PM 66 67.5 -1.5 33 13.4 19.6 5.2
Adrian  06:40 PM 62.7 58.5 4.2 21.3 9.4 11.9 2.7
Lesley  06:40 PM 68 70.5 -2.5 33 14.8 18.2 5.9
Earth  06:40 PM 64.9 62.9 1.9 19.1 13.7 5.4 2.8
Van Horn  06:40 PM 77.6 64.2 13.5 23.8 9.3 14.5 -2.8
Rotan  06:40 PM 67.3 69.2 -1.9 36.7 21 15.7 4.6
Fritch  06:40 PM 67 59.1 7.8 22.6 19 3.6 3.5
Estelline  06:40 PM 67.7 70.4 -2.7 35.8 17.8 18 6.3
Crane  06:40 PM 73.8 71.3 2.5 33.9 6.9 26.9 0.8
Hackberry  06:40 PM 67 70.5 -3.5 42.2 19.8 22.4 6.3
Romero 11SSW  06:40 PM 67.4 60.6 6.8 20.8 8.2 12.6 2.1
Palo Duro Reservoir 1NW  06:40 PM 66 56.8 9.2 26.1 22.4 3.7 3.7
South Plains 3ENE  06:40 PM 64 64 -0.1 29.2 17.6 11.6 5.1
Lake McClellan 2NW  06:40 PM 63.7 62.7 1 28.7 13.8 14.9 5.3
Segovia 7SSW  06:40 PM 72.7 74.1 -1.4 32.2 22.4 9.8 3.1
Castolon 1NW BBNP  06:40 PM 86.7 80 6.6 49 5.3 43.8 -2.8
Smyer  06:40 PM 65.4 64.1 1.3 24.4 12.4 12 3.2
Doole 3WNW  06:40 PM 68.3 73.1 -4.8 42.6 21.5 21.2 4.3
Stratford  06:40 PM 63.7 56.3 7.4 26.7 15.8 10.9 2.8
Truscott  06:40 PM 67.4 69.4 -2 43.7 27 16.7 6.7
Hefner  06:40 PM 65.5 68.2 -2.8 44.8 28.6 16.2 6.4
Kent I10-I20 Split  06:40 PM 74.2 64.1 10.1 27 3.8 23.1 -1.6
Olton  06:40 PM 63.5 62.5 0.9 23.7 13.7 10.1 3.6
McAdoo  06:40 PM 63.8 66.2 -2.4 34.8 12.3 22.5 4.8

West Texas Mesonet Home   Site Map/Menu  NWS Lubbock Soil Data  Daily Summary Page  24hr Precip  72hr Precip  Google Plot